Time;durP1;ratioP1;P1;durP2;ratioP2;P2;SDS_P1;SDS_P2;PMS_P1;PMS_P2;Temp;Humidity;BMP_temperature;BMP_pressure;BME280_temperature;BME280_humidity;BME280_pressure;Samples;Min_cycle;Max_cycle;Signal;HPM_P1;HPM_P2
2023/01/15 00:02:17;;;;;;;43.78;25.45;;;;;;;6.61;62.46;99079.84;4857156;29;20061;-60
2023/01/15 00:05:02;;;;;;;50.78;25.05;;;;;;;6.49;63.80;99075.03;4865584;29;20172;-61
2023/01/15 00:07:51;;;;;;;42.30;24.77;;;;;;;6.33;63.24;99081.00;4834718;29;20315;-60
2023/01/15 00:10:34;;;;;;;58.38;26.40;;;;;;;6.32;64.29;99079.38;4851876;29;20168;-60
2023/01/15 00:13:24;;;;;;;54.95;25.52;;;;;;;6.30;64.73;99084.78;4852686;29;20065;-61
2023/01/15 00:16:09;;;;;;;51.10;26.00;;;;;;;6.03;63.72;99087.56;4853710;29;20057;-61
2023/01/15 00:19:07;;;;;;;45.72;25.77;;;;;;;6.10;65.46;99087.81;4869984;29;20292;-60
2023/01/15 00:21:49;;;;;;;46.75;25.08;;;;;;;6.20;65.58;99083.25;4849858;29;20049;-60
2023/01/15 00:27:39;;;;;;;47.78;24.92;;;;;;;6.12;63.84;99080.56;4851469;29;20129;-61
2023/01/15 00:30:28;;;;;;;49.28;24.23;;;;;;;6.15;64.35;99081.06;4855435;29;20057;-60
2023/01/15 00:33:10;;;;;;;50.10;25.35;;;;;;;6.17;64.74;99080.94;4839125;29;20548;-60
2023/01/15 00:35:59;;;;;;;48.70;26.00;;;;;;;6.09;64.85;99084.34;4845551;29;20054;-60
2023/01/15 00:38:41;;;;;;;51.60;25.88;;;;;;;6.15;65.21;99083.69;4848377;29;20057;-60
2023/01/15 00:41:36;;;;;;;49.00;24.20;;;;;;;6.04;63.60;99081.34;4856859;29;20113;-60
2023/01/15 00:44:11;;;;;;;52.85;25.48;;;;;;;6.03;64.27;99078.88;4858303;29;20057;-59
2023/01/15 00:47:00;;;;;;;55.05;24.58;;;;;;;6.06;64.01;99089.09;4861717;29;20054;-60
2023/01/15 00:49:42;;;;;;;48.20;24.35;;;;;;;6.02;64.13;99087.75;4844345;29;20125;-60
2023/01/15 00:52:31;;;;;;;44.38;24.27;;;;;;;5.95;64.32;99098.03;4843092;29;20085;-60
2023/01/15 00:55:14;;;;;;;49.15;25.13;;;;;;;5.90;65.51;99097.66;4866099;29;20145;-60
2023/01/15 00:58:03;;;;;;;50.30;24.55;;;;;;;5.81;64.73;99106.44;4860031;29;20116;-60
2023/01/15 01:00:52;;;;;;;45.78;25.08;;;;;;;5.84;63.80;99109.56;4855576;29;20050;-60
2023/01/15 01:03:34;;;;;;;51.20;25.97;;;;;;;5.89;63.22;99114.41;4855701;29;20053;-59
2023/01/15 01:06:23;;;;;;;50.15;25.58;;;;;;;5.88;63.31;99111.97;4854188;29;20129;-59
2023/01/15 01:09:05;;;;;;;47.03;24.27;;;;;;;5.89;62.59;99117.03;4856963;29;20144;-60
2023/01/15 01:11:56;;;;;;;48.70;25.77;;;;;;;5.91;63.93;99124.78;4856158;29;20049;-60
2023/01/15 01:14:45;;;;;;;48.33;25.20;;;;;;;5.86;63.67;99122.59;4863752;29;20053;-60
2023/01/15 01:17:27;;;;;;;56.15;26.98;;;;;;;5.78;64.25;99131.22;4873429;29;20060;-59
2023/01/15 01:20:17;;;;;;;50.20;26.33;;;;;;;5.64;64.51;99130.94;4855384;29;20133;-59
2023/01/15 01:23:00;;;;;;;48.67;26.98;;;;;;;5.57;64.94;99127.25;4874411;29;20072;-58
2023/01/15 01:25:49;;;;;;;51.03;24.83;;;;;;;5.69;64.47;99133.94;4837350;29;20423;-59
2023/01/15 01:28:31;;;;;;;55.45;25.50;;;;;;;5.81;64.84;99127.47;4837903;29;20419;-59
2023/01/15 01:31:20;;;;;;;48.63;24.95;;;;;;;5.76;65.37;99137.59;4854432;29;20057;-59
2023/01/15 01:34:05;;;;;;;50.90;27.58;;;;;;;5.79;64.69;99132.06;4857672;29;20067;-58
2023/01/15 01:36:55;;;;;;;49.42;27.00;;;;;;;5.78;64.12;99146.16;4855682;29;20537;-59
2023/01/15 01:39:44;;;;;;;52.15;26.60;;;;;;;5.73;64.29;99146.63;4841687;29;20050;-58
2023/01/15 01:42:26;;;;;;;53.53;27.13;;;;;;;6.04;64.63;99140.97;4870952;29;20467;-58
2023/01/15 01:45:32;;;;;;;51.47;26.98;;;;;;;5.75;64.72;99154.38;4856783;29;20049;-58
2023/01/15 01:48:27;;;;;;;56.53;28.20;;;;;;;5.80;62.95;99155.53;4853761;29;20477;-58
2023/01/15 01:51:10;;;;;;;68.90;29.38;;;;;;;5.98;63.68;99152.94;4858607;29;20045;-59
2023/01/15 01:54:01;;;;;;;57.10;28.85;;;;;;;5.94;62.40;99156.84;4853534;29;20157;-58
2023/01/15 01:56:43;;;;;;;54.45;28.98;;;;;;;6.05;61.94;99151.34;4852288;29;20141;-58
2023/01/15 01:59:39;;;;;;;57.85;29.83;;;;;;;5.95;62.27;99149.78;4842236;29;20136;-58
2023/01/15 02:02:19;;;;;;;61.80;29.98;;;;;;;5.85;63.12;99152.47;4869903;29;20049;-58
2023/01/15 02:05:15;;;;;;;53.42;29.90;;;;;;;5.86;61.92;99149.72;4872619;29;20052;-58
2023/01/15 02:07:53;;;;;;;57.53;31.10;;;;;;;6.12;61.59;99148.94;4856771;29;20124;-59
2023/01/15 02:10:52;;;;;;;64.05;30.38;;;;;;;6.00;60.32;99151.00;4843912;29;20042;-60
2023/01/15 02:13:51;;;;;;;67.93;31.58;;;;;;;6.01;61.50;99157.91;4859483;29;20053;-58
2023/01/15 02:17:09;;;;;;;63.97;32.67;;;;;;;5.81;61.63;99157.19;4852604;29;20121;-60
2023/01/15 02:20:10;;;;;;;61.55;32.35;;;;;;;5.82;61.18;99158.03;4856141;29;20048;-58
2023/01/15 02:23:34;;;;;;;61.42;31.48;;;;;;;6.11;59.84;99155.16;4854562;29;20056;-59
2023/01/15 02:26:44;;;;;;;62.13;31.50;;;;;;;5.96;60.94;99149.66;4855183;29;20155;-61
2023/01/15 02:29:38;;;;;;;58.47;30.75;;;;;;;5.84;61.26;99150.84;4854739;29;20057;-59
2023/01/15 02:32:49;;;;;;;60.20;30.77;;;;;;;5.93;61.11;99162.28;4851379;29;20045;-58
2023/01/15 02:35:34;;;;;;;59.00;29.42;;;;;;;5.96;60.98;99168.03;4844635;29;20061;-59
2023/01/15 02:38:32;;;;;;;56.58;29.23;;;;;;;6.28;61.02;99164.84;4871794;29;20056;-59
2023/01/15 02:41:24;;;;;;;60.43;30.50;;;;;;;6.19;60.72;99166.59;4532053;29;9600227;-59
2023/01/15 02:44:26;;;;;;;70.00;30.42;;;;;;;6.47;60.48;99167.25;4845016;29;20084;-58
2023/01/15 02:47:03;;;;;;;58.28;29.30;;;;;;;6.67;60.01;99179.22;4853535;29;20580;-60
2023/01/15 02:49:56;;;;;;;60.50;31.08;;;;;;;6.67;58.23;99168.72;4828039;29;20045;-61
2023/01/15 02:52:53;;;;;;;64.20;28.58;;;;;;;6.83;57.74;99173.22;4846204;29;20049;-59
2023/01/15 02:55:54;;;;;;;52.35;27.30;;;;;;;7.04;57.72;99176.28;4846862;29;20152;-59
2023/01/15 02:58:39;;;;;;;58.83;28.75;;;;;;;7.13;57.09;99185.84;4846459;29;20112;-58
2023/01/15 03:01:36;;;;;;;74.50;31.40;;;;;;;7.12;54.10;99189.50;4844496;29;20554;-59
2023/01/15 03:04:47;;;;;;;66.57;29.10;;;;;;;7.32;54.50;99194.50;4846168;29;20057;-59
2023/01/15 03:07:57;;;;;;;56.03;30.25;;;;;;;7.32;53.08;99195.31;4847582;29;20049;-61
2023/01/15 03:10:43;;;;;;;71.27;29.27;;;;;;;7.45;53.52;99193.06;4848033;29;20063;-59
2023/01/15 03:13:45;;;;;;;59.60;29.08;;;;;;;7.45;53.48;99197.50;4843814;29;20080;-58
2023/01/15 03:16:43;;;;;;;67.95;29.48;;;;;;;7.67;53.88;99200.34;4860581;29;20061;-60
2023/01/15 03:19:41;;;;;;;;;;;;;;;7.83;51.45;99201.38;4865618;29;20133;-60
2023/01/15 03:22:29;;;;;;;56.13;27.67;;;;;;;7.91;50.36;99193.47;4837212;29;19950;-59
2023/01/15 03:25:32;;;;;;;67.82;29.02;;;;;;;8.04;50.70;99210.47;4860965;29;20396;-59
2023/01/15 03:28:11;;;;;;;55.17;27.55;;;;;;;8.43;49.18;99207.19;4843520;29;20366;-58
2023/01/15 03:31:07;;;;;;;61.55;28.52;;;;;;;9.46;48.11;99208.88;4835329;29;20038;-58
2023/01/15 03:33:43;;;;;;;69.05;30.30;;;;;;;10.43;44.53;99216.19;4838465;29;20149;-58
2023/01/15 03:36:40;;;;;;;59.53;28.63;;;;;;;11.05;45.74;99218.56;4833449;29;20064;-58
2023/01/15 03:39:18;;;;;;;73.32;29.60;;;;;;;11.49;42.35;99216.69;4852076;29;20144;-60
2023/01/15 03:42:46;;;;;;;58.33;28.65;;;;;;;12.02;43.60;99214.66;4853051;29;20274;-60
2023/01/15 03:45:38;;;;;;;57.13;29.55;;;;;;;12.67;40.13;99210.91;4852827;29;20057;-60
2023/01/15 03:48:50;;;;;;;48.47;26.83;;;;;;;13.22;38.55;99220.72;4851777;29;20064;-61
2023/01/15 03:51:48;;;;;;;54.53;28.88;;;;;;;13.78;38.87;99224.03;4839111;29;20052;-59
2023/01/15 03:54:44;;;;;;;56.30;27.80;;;;;;;13.97;35.51;99225.09;4822508;29;20054;-58
2023/01/15 03:57:52;;;;;;;56.78;26.50;;;;;;;14.32;34.78;99224.75;4832708;29;20050;-58
2023/01/15 04:00:51;;;;;;;52.35;25.10;;;;;;;14.50;38.04;99236.69;4836760;29;20046;-58
2023/01/15 04:03:35;;;;;;;49.33;25.10;;;;;;;14.62;37.01;99243.03;4832159;29;20669;-58
2023/01/15 04:06:28;;;;;;;43.30;24.10;;;;;;;15.43;36.25;99238.22;4831443;29;20050;-58
2023/01/15 04:09:13;;;;;;;55.17;24.23;;;;;;;16.41;32.33;99231.56;4836030;29;20064;-58
2023/01/15 04:12:06;;;;;;;56.90;24.50;;;;;;;15.94;31.71;99252.38;4827387;29;20061;-58
2023/01/15 04:14:55;;;;;;;52.85;24.98;;;;;;;16.82;32.90;99247.91;4837817;29;20364;-59
2023/01/15 04:17:37;;;;;;;43.63;24.20;;;;;;;16.65;33.06;99252.16;4851970;29;20133;-58
2023/01/15 04:20:34;;;;;;;49.72;24.55;;;;;;;17.04;31.40;99249.13;4842589;29;20057;-59
2023/01/15 04:23:10;;;;;;;50.03;25.55;;;;;;;17.44;30.68;99252.22;4815168;29;20066;-59
2023/01/15 04:26:06;;;;;;;50.67;23.95;;;;;;;17.18;28.58;99246.34;4839204;29;20041;-59
2023/01/15 04:28:43;;;;;;;46.10;23.48;;;;;;;17.08;31.00;99251.41;4853160;29;20057;-59
2023/01/15 04:31:32;;;;;;;47.28;24.15;;;;;;;17.76;28.93;99252.91;4844767;29;20053;-59
2023/01/15 04:34:14;;;;;;;45.92;23.48;;;;;;;18.06;28.57;99254.78;4838979;29;20046;-59
2023/01/15 04:37:03;;;;;;;52.42;25.30;;;;;;;18.34;27.39;99250.47;4834885;29;20054;-58
2023/01/15 04:39:45;;;;;;;47.42;22.33;;;;;;;17.48;29.95;99250.72;4828871;29;20141;-59
2023/01/15 04:45:35;;;;;;;39.85;22.60;;;;;;;17.55;30.55;99260.56;4859994;29;20049;-61
2023/01/15 04:48:24;;;;;;;47.90;23.13;;;;;;;17.41;28.25;99252.69;4852680;29;20486;-58
2023/01/15 04:51:11;;;;;;;44.35;22.52;;;;;;;17.46;30.67;99257.38;4852944;29;20061;-58
2023/01/15 04:54:03;;;;;;;49.87;23.63;;;;;;;18.27;29.68;99259.66;4851410;29;20262;-59
2023/01/15 04:56:55;;;;;;;47.75;24.83;;;;;;;17.93;29.64;99248.56;4853698;29;20284;-58
2023/01/15 04:59:37;;;;;;;49.97;24.38;;;;;;;17.92;29.07;99241.56;4851488;29;20092;-58
2023/01/15 05:02:26;;;;;;;52.85;22.83;;;;;;;18.53;27.79;99247.75;4851291;29;20094;-59
2023/01/15 05:05:08;;;;;;;44.28;24.92;;;;;;;18.18;28.34;99253.00;4856113;29;20059;-60
2023/01/15 05:07:57;;;;;;;42.97;23.90;;;;;;;17.19;30.64;99245.28;4857453;29;20565;-59
2023/01/15 05:10:52;;;;;;;33.40;21.92;;;;;;;16.98;28.32;99242.00;4836392;29;20056;-58
2023/01/15 05:13:28;;;;;;;43.70;22.52;;;;;;;17.06;30.85;99241.72;4850354;29;20046;-56
2023/01/15 05:16:28;;;;;;;42.75;22.92;;;;;;;17.47;30.34;99249.13;4853213;29;20056;-61
2023/01/15 05:19:08;;;;;;;43.63;22.60;;;;;;;17.38;30.40;99234.41;4857048;29;20736;-58
2023/01/15 05:21:59;;;;;;;46.90;22.27;;;;;;;16.82;28.36;99234.53;4837223;29;20053;-59
2023/01/15 05:24:49;;;;;;;46.38;24.40;;;;;;;17.30;28.83;99228.53;4851588;29;20045;-59
2023/01/15 05:27:39;;;;;;;38.30;21.20;;;;;;;17.56;29.35;99224.72;4860582;29;20538;-60
2023/01/15 05:30:22;;;;;;;34.03;19.08;;;;;;;17.27;28.96;99224.41;4868677;29;20088;-59
2023/01/15 05:33:17;;;;;;;47.42;20.40;;;;;;;16.87;27.51;99225.84;4873168;29;20108;-59
2023/01/15 05:35:52;;;;;;;37.20;20.30;;;;;;;16.78;29.47;99224.47;4837528;29;20058;-58
2023/01/15 05:38:48;;;;;;;36.95;19.13;;;;;;;17.04;29.53;99224.22;4852014;29;20507;-60
2023/01/15 05:44:38;;;;;;;36.85;19.25;;;;;;;17.19;27.71;99221.22;4873421;29;20060;-58
2023/01/15 05:47:13;;;;;;;40.80;18.80;;;;;;;16.89;27.77;99213.06;4853911;29;20062;-57
2023/01/15 05:50:10;;;;;;;35.65;18.20;;;;;;;17.21;29.79;99221.81;4859493;29;20117;-58
2023/01/15 05:52:46;;;;;;;30.65;16.25;;;;;;;17.42;28.61;99208.81;4857481;29;20056;-60
2023/01/15 05:55:35;;;;;;;35.65;16.75;;;;;;;17.66;29.02;99212.44;4854899;29;20064;-58
2023/01/15 05:58:17;;;;;;;28.48;16.23;;;;;;;17.81;27.10;99212.06;4855070;29;20065;-58
2023/01/15 06:01:08;;;;;;;33.88;15.55;;;;;;;17.87;25.93;99208.47;4855854;29;20506;-59
2023/01/15 06:03:57;;;;;;;31.15;15.35;;;;;;;18.04;26.74;99212.16;4857549;29;20457;-58
2023/01/15 06:06:40;;;;;;;29.65;15.07;;;;;;;18.03;26.56;99212.38;4854646;29;20498;-61
2023/01/15 06:09:30;;;;;;;27.48;15.88;;;;;;;18.64;27.08;99212.88;4854939;29;20068;-58
2023/01/15 06:12:25;;;;;;;24.52;14.65;;;;;;;18.67;26.10;99204.38;4857855;29;20053;-59
2023/01/15 06:15:00;;;;;;;27.77;14.18;;;;;;;18.70;24.63;99201.22;4870083;29;20052;-60
2023/01/15 06:17:49;;;;;;;22.85;9.13;;;;;;;18.29;26.75;99198.56;4873231;29;20055;-62
2023/01/15 06:20:42;;;;;;;17.75;9.85;;;;;;;18.51;24.34;99190.78;4872854;29;20530;-63
2023/01/15 06:23:24;;;;;;;19.45;9.30;;;;;;;18.09;25.08;99190.03;4859736;29;20049;-63
2023/01/15 06:26:19;;;;;;;14.68;7.95;;;;;;;18.70;25.65;99179.78;4854690;29;20045;-63
2023/01/15 06:29:01;;;;;;;16.67;8.77;;;;;;;18.62;23.20;99177.44;4854314;29;20060;-65
2023/01/15 06:31:50;;;;;;;11.90;8.07;;;;;;;18.14;23.65;99171.38;4851121;29;20054;-62
2023/01/15 06:34:32;;;;;;;23.33;9.57;;;;;;;18.45;25.15;99165.72;4838363;29;20045;-62
2023/01/15 06:37:21;;;;;;;15.27;9.98;;;;;;;18.13;20.56;99164.38;4836773;29;20390;-61
2023/01/15 06:40:03;;;;;;;23.83;8.55;;;;;;;17.79;21.01;99150.63;4853959;29;20095;-61
2023/01/15 06:49:16;;;;;;;25.15;9.88;;;;;;;18.50;22.15;99132.84;4844061;29;20053;-62
2023/01/15 06:51:58;;;;;;;22.48;9.85;;;;;;;18.54;22.49;99132.19;4852719;29;20125;-62
2023/01/15 06:54:47;;;;;;;23.15;11.40;;;;;;;18.01;23.06;99132.19;4846366;29;20049;-62
2023/01/15 06:57:33;;;;;;;22.15;12.25;;;;;;;17.98;21.64;99123.78;4853112;29;20057;-62
2023/01/15 07:00:22;;;;;;;24.85;11.93;;;;;;;17.91;22.25;99124.72;4852539;29;20061;-64
2023/01/15 07:03:04;;;;;;;26.55;12.60;;;;;;;18.05;23.14;99113.78;4837262;29;20157;-64
2023/01/15 07:05:54;;;;;;;25.52;14.15;;;;;;;17.91;22.46;99114.00;4837286;29;20094;-64
2023/01/15 07:08:36;;;;;;;26.52;15.60;;;;;;;17.49;24.74;99106.94;4856296;29;20051;-62
2023/01/15 07:11:25;;;;;;;23.20;13.75;;;;;;;17.92;24.29;99112.94;4872592;29;20701;-61
2023/01/15 07:14:07;;;;;;;21.27;13.38;;;;;;;17.53;23.60;99105.44;4856090;29;20525;-62
2023/01/15 07:16:58;;;;;;;22.20;13.25;;;;;;;17.84;24.81;99097.19;4834741;29;20053;-62
2023/01/15 07:19:40;;;;;;;22.58;12.70;;;;;;;16.93;21.96;99113.41;4850835;29;20077;-61
2023/01/15 07:22:29;;;;;;;20.20;13.23;;;;;;;17.78;23.63;99095.44;4851823;29;20053;-62
2023/01/15 07:25:11;;;;;;;22.50;13.73;;;;;;;17.76;21.87;99094.84;4853243;29;20050;-62
2023/01/15 07:28:00;;;;;;;27.98;14.88;;;;;;;17.90;23.46;99087.41;4855661;29;20788;-62
2023/01/15 07:30:42;;;;;;;35.17;14.50;;;;;;;17.91;25.13;99087.19;4853373;29;20382;-62
2023/01/15 07:33:31;;;;;;;28.27;13.82;;;;;;;17.64;22.98;99082.47;4853143;29;20053;-61
2023/01/15 07:36:13;;;;;;;36.75;13.98;;;;;;;17.31;22.64;99078.34;4852351;29;20049;-62
2023/01/15 07:39:02;;;;;;;25.40;14.18;;;;;;;17.44;22.43;99070.13;4849092;29;20057;-61
2023/01/15 07:51:01;;;;;;;26.40;13.27;;;;;;;17.82;23.52;99069.81;4852054;29;20053;-62
2023/01/15 07:53:43;;;;;;;29.83;13.48;;;;;;;17.71;24.29;99062.56;4856383;29;20478;-62
2023/01/15 07:56:32;;;;;;;35.08;13.80;;;;;;;17.99;24.45;99053.06;4854082;29;20049;-63
2023/01/15 07:59:14;;;;;;;22.00;12.95;;;;;;;17.66;23.22;99053.59;4853718;29;20057;-63
2023/01/15 08:02:03;;;;;;;31.40;12.73;;;;;;;17.73;23.94;99048.94;4855891;29;20077;-63
2023/01/15 08:04:46;;;;;;;21.90;12.00;;;;;;;17.97;25.19;99039.09;4863169;29;20060;-63
2023/01/15 08:07:36;;;;;;;21.80;12.00;;;;;;;18.00;22.74;99042.13;4851978;29;20049;-62
2023/01/15 08:10:25;;;;;;;26.88;12.20;;;;;;;17.95;24.28;99033.94;4851176;29;20125;-63
2023/01/15 08:16:14;;;;;;;25.60;11.55;;;;;;;17.75;24.70;99025.41;4846278;29;20049;-63
2023/01/15 08:18:56;;;;;;;21.98;10.60;;;;;;;17.80;24.79;99023.66;4869287;29;20489;-62
2023/01/15 08:21:45;;;;;;;22.90;11.32;;;;;;;17.32;24.06;99012.22;4853633;29;20137;-62
2023/01/15 08:24:27;;;;;;;22.80;10.98;;;;;;;17.66;26.52;99022.25;4856062;29;20057;-62
2023/01/15 08:27:23;;;;;;;20.88;11.20;;;;;;;17.99;26.50;99012.84;4860503;29;20136;-62
2023/01/15 08:29:58;;;;;;;24.38;9.95;;;;;;;17.90;24.78;99012.38;4853897;29;20072;-61
2023/01/15 08:32:54;;;;;;;23.92;11.60;;;;;;;17.66;24.44;99003.50;4860874;29;20211;-61
2023/01/15 08:35:30;;;;;;;22.52;10.95;;;;;;;17.33;24.52;98992.47;4863887;29;20049;-62
2023/01/15 08:38:25;;;;;;;22.08;10.85;;;;;;;17.47;25.97;98992.03;4852169;29;20125;-63
2023/01/15 08:41:13;;;;;;;23.55;10.57;;;;;;;17.62;26.62;98983.56;4857199;29;20060;-62
2023/01/15 08:44:02;;;;;;;20.17;9.93;;;;;;;17.63;26.33;98985.22;4834479;29;20546;-63
2023/01/15 08:46:44;;;;;;;19.27;10.55;;;;;;;17.43;26.08;98973.97;4834108;29;20054;-62
2023/01/15 08:49:33;;;;;;;28.10;9.98;;;;;;;17.43;25.38;98972.13;4838585;29;20121;-63
2023/01/15 08:52:15;;;;;;;21.45;9.95;;;;;;;17.37;26.14;98966.84;4837295;29;20049;-62
2023/01/15 08:55:04;;;;;;;17.95;9.02;;;;;;;17.45;26.26;98969.19;4834993;29;20495;-62
2023/01/15 08:57:54;;;;;;;20.20;9.63;;;;;;;17.49;26.12;98970.38;4838727;29;20554;-63
2023/01/15 09:00:43;;;;;;;18.73;9.90;;;;;;;17.41;26.83;98960.00;4838253;29;20364;-62
2023/01/15 09:03:26;;;;;;;22.45;9.70;;;;;;;17.48;26.81;98971.44;4837816;29;20468;-61
2023/01/15 09:06:21;;;;;;;28.00;11.20;;;;;;;17.40;26.79;98958.34;4837879;29;20046;-63
2023/01/15 09:08:58;;;;;;;22.48;9.10;;;;;;;17.41;26.54;98958.13;4837539;29;20057;-61
2023/01/15 09:11:48;;;;;;;24.27;9.77;;;;;;;17.30;27.66;98950.91;4835141;29;20046;-61
2023/01/15 09:14:30;;;;;;;19.58;9.93;;;;;;;17.23;27.66;98941.31;4835287;29;20046;-61
2023/01/15 09:17:39;;;;;;;17.17;9.32;;;;;;;17.17;27.60;98934.22;4836347;29;20062;-64
2023/01/15 09:20:22;;;;;;;15.95;9.05;;;;;;;17.20;28.69;98941.78;4838897;29;20053;-62
2023/01/15 09:23:20;;;;;;;28.05;9.30;;;;;;;17.25;28.03;98936.56;4838156;29;20053;-62
2023/01/15 09:25:58;;;;;;;23.10;10.93;;;;;;;17.17;27.45;98932.34;4838809;29;20465;-61
2023/01/15 09:28:53;;;;;;;22.05;9.05;;;;;;;17.25;28.00;98928.53;4837299;29;20050;-62
2023/01/15 09:31:30;;;;;;;27.55;10.13;;;;;;;17.02;27.56;98937.31;4838364;29;20045;-62
2023/01/15 09:34:19;;;;;;;28.27;10.40;;;;;;;17.02;27.82;98924.75;4835779;29;20081;-63
2023/01/15 09:37:01;;;;;;;21.35;9.77;;;;;;;16.98;27.57;98923.59;4839208;29;20060;-60
2023/01/15 09:39:43;;;;;;;19.77;9.32;;;;;;;17.11;28.08;98916.41;4836279;29;20348;-62
2023/01/15 09:43:08;;;;;;;21.58;10.43;;;;;;;17.11;27.62;98911.88;4844567;29;20038;-62
2023/01/15 09:46:12;;;;;;;25.13;9.82;;;;;;;16.96;28.87;98914.97;4859870;29;20049;-62
2023/01/15 09:49:31;;;;;;;25.58;10.00;;;;;;;16.90;28.89;98907.03;4870642;29;20152;-62
2023/01/15 09:52:42;;;;;;;24.02;9.43;;;;;;;16.79;28.52;98908.63;4855000;29;20121;-62
2023/01/15 09:55:41;;;;;;;22.52;10.50;;;;;;;16.79;27.00;98903.28;4857161;29;20053;-60
2023/01/15 09:58:45;;;;;;;20.38;9.43;;;;;;;16.89;28.61;98892.03;4837058;29;20046;-63
2023/01/15 10:01:28;;;;;;;19.85;9.38;;;;;;;16.80;28.64;98899.56;4851689;29;20642;-62
2023/01/15 10:04:43;;;;;;;22.10;9.05;;;;;;;16.87;28.45;98908.28;4864264;29;20149;-61
2023/01/15 10:07:27;;;;;;;23.17;10.18;;;;;;;16.73;28.19;98904.16;4852138;29;20053;-64
2023/01/15 10:10:22;;;;;;;22.73;9.88;;;;;;;16.76;27.51;98897.56;4855721;29;20525;-62
2023/01/15 10:13:13;;;;;;;17.88;8.52;;;;;;;16.77;28.73;98891.19;4853830;29;20474;-62
2023/01/15 10:16:09;;;;;;;22.52;10.32;;;;;;;16.69;27.13;98897.66;4842755;29;20045;-62
2023/01/15 10:18:45;;;;;;;20.27;9.98;;;;;;;16.74;27.88;98894.28;4835862;29;20053;-63
2023/01/15 10:21:53;;;;;;;16.80;9.95;;;;;;;16.72;27.57;98891.03;4854909;29;20522;-61
2023/01/15 10:24:45;;;;;;;18.60;10.38;;;;;;;16.60;26.75;98893.66;4855605;29;20064;-62
2023/01/15 10:27:35;;;;;;;26.48;9.57;;;;;;;16.47;28.50;98872.41;4856848;29;20044;-64
2023/01/15 10:30:36;;;;;;;27.23;9.73;;;;;;;16.56;28.31;98877.22;4859399;29;20053;-62
2023/01/15 10:33:59;;;;;;;26.88;10.00;;;;;;;16.57;28.46;98875.38;4854319;29;20060;-63
2023/01/15 10:36:52;;;;;;;22.80;10.10;;;;;;;16.54;29.04;98867.81;4854062;29;20365;-62
2023/01/15 10:40:11;;;;;;;33.38;11.02;;;;;;;16.49;30.00;98873.00;4853062;29;20049;-62
2023/01/15 10:43:23;;;;;;;29.42;11.05;;;;;;;16.38;27.93;98865.75;4851533;29;20053;-62
2023/01/15 10:46:31;;;;;;;26.98;11.90;;;;;;;16.39;30.19;98870.06;4854648;29;20164;-61
2023/01/15 10:49:20;;;;;;;26.75;11.30;;;;;;;16.45;31.07;98863.81;4852391;29;20137;-63
2023/01/15 10:52:19;;;;;;;33.53;11.60;;;;;;;16.31;30.73;98868.53;4854205;29;20418;-65
2023/01/15 10:55:31;;;;;;;31.60;14.05;;;;;;;16.33;30.73;98865.63;4837851;29;20054;-63
2023/01/15 10:58:39;;;;;;;27.65;12.68;;;;;;;16.35;30.93;98867.03;4821485;29;20049;-63
2023/01/15 11:01:28;;;;;;;32.33;13.90;;;;;;;16.18;32.34;98864.16;4841900;29;20109;-64
2023/01/15 11:04:18;;;;;;;35.33;14.40;;;;;;;16.13;31.46;98856.00;4849079;29;20045;-64
2023/01/15 11:07:02;;;;;;;29.52;13.57;;;;;;;15.99;33.08;98859.84;4836388;29;20145;-62
2023/01/15 11:09:51;;;;;;;30.95;13.30;;;;;;;15.96;33.36;98860.31;4850146;29;20105;-64
2023/01/15 11:21:53;;;;;;;30.42;13.38;;;;;;;15.83;35.91;98849.78;4863141;29;20045;-61
2023/01/15 11:24:51;;;;;;;38.47;16.15;;;;;;;15.79;36.73;98859.28;4837388;29;20049;-61
2023/01/15 11:27:43;;;;;;;39.75;16.60;;;;;;;15.81;36.29;98856.34;4852595;29;20770;-62
2023/01/15 11:30:37;;;;;;;30.80;16.55;;;;;;;15.65;35.67;98853.25;4852361;29;20077;-63
2023/01/15 11:33:31;;;;;;;41.33;17.25;;;;;;;15.62;36.29;98847.53;4849006;29;20168;-63
2023/01/15 11:36:23;;;;;;;36.45;15.65;;;;;;;15.46;36.58;98853.41;4838603;29;20065;-65
2023/01/15 11:39:26;;;;;;;36.85;15.02;;;;;;;15.40;36.54;98856.97;4861536;29;20045;-64
2023/01/15 11:51:55;;;;;;;33.75;15.48;;;;;;;15.39;38.27;98852.66;4855443;29;20117;-65
2023/01/15 11:54:55;;;;;;;38.70;14.40;;;;;;;15.48;37.83;98859.34;4860597;29;20120;-62
2023/01/15 11:57:34;;;;;;;29.07;14.47;;;;;;;15.42;36.48;98854.88;4857278;29;20077;-63
2023/01/15 12:00:36;;;;;;;26.90;14.63;;;;;;;15.41;39.17;98856.72;4862633;29;20121;-64
2023/01/15 12:03:17;;;;;;;32.45;15.02;;;;;;;15.21;40.98;98858.78;4871723;29;20049;-65
2023/01/15 12:06:18;;;;;;;41.25;14.57;;;;;;;15.31;38.38;98860.94;4867336;29;20592;-63
2023/01/15 12:09:16;;;;;;;30.52;13.38;;;;;;;15.20;37.70;98865.94;4851280;29;20053;-64
2023/01/15 12:12:23;;;;;;;31.27;13.52;;;;;;;15.12;41.48;98865.41;4850754;29;20454;-63
2023/01/15 12:15:18;;;;;;;28.25;13.70;;;;;;;14.99;42.44;98865.50;4856180;29;20053;-64
2023/01/15 12:18:25;;;;;;;33.72;13.95;;;;;;;14.78;43.19;98872.81;4852916;29;20449;-64
2023/01/15 12:21:48;;;;;;;36.55;14.18;;;;;;;14.52;42.99;98872.16;4855995;29;20049;-63
2023/01/15 12:24:44;;;;;;;32.28;14.07;;;;;;;14.41;42.69;98879.00;4842381;29;20137;-63
2023/01/15 12:27:53;;;;;;;28.83;14.85;;;;;;;14.36;43.63;98876.16;4838361;29;20052;-64
2023/01/15 12:30:56;;;;;;;45.00;15.20;;;;;;;14.10;44.10;98873.56;4859052;29;20049;-62
2023/01/15 12:33:54;;;;;;;34.75;14.73;;;;;;;14.08;44.98;98881.75;4856531;29;20156;-65
2023/01/15 12:36:56;;;;;;;35.70;14.43;;;;;;;13.63;45.91;98877.38;4858463;29;20052;-65
2023/01/15 12:39:47;;;;;;;33.45;14.93;;;;;;;13.62;46.42;98875.75;4858014;29;20495;-66
2023/01/15 12:45:56;;;;;;;29.63;15.32;;;;;;;13.14;48.63;98883.97;4866539;29;20052;-65
2023/01/15 12:48:56;;;;;;;31.75;14.43;;;;;;;12.95;49.03;98890.06;4873153;29;20148;-64
2023/01/15 12:52:03;;;;;;;36.78;15.65;;;;;;;12.70;49.93;98887.13;4852398;29;20057;-64
2023/01/15 12:55:05;;;;;;;30.30;15.55;;;;;;;12.60;49.95;98886.72;4854541;29;20576;-64
2023/01/15 12:57:58;;;;;;;36.80;16.35;;;;;;;12.45;50.79;98888.72;4856337;29;20057;-67
2023/01/15 13:00:47;;;;;;;37.58;15.40;;;;;;;12.52;50.18;98897.53;4866014;29;20053;-61
2023/01/15 13:03:48;;;;;;;35.88;17.00;;;;;;;12.51;51.26;98896.72;4855230;29;20056;-60
2023/01/15 13:06:39;;;;;;;38.60;17.25;;;;;;;12.58;51.03;98900.19;4852437;29;20042;-63
2023/01/15 13:09:44;;;;;;;41.25;19.23;;;;;;;12.69;51.24;98904.13;4855001;29;20148;-63
2023/01/15 13:12:36;;;;;;;41.47;19.15;;;;;;;12.50;51.37;98910.19;4832920;29;20142;-62
2023/01/15 13:15:24;;;;;;;64.15;19.67;;;;;;;12.39;51.32;98914.22;4856274;29;20053;-62
2023/01/15 13:18:35;;;;;;;42.75;18.38;;;;;;;12.63;52.05;98915.53;4854939;29;20041;-61
2023/01/15 13:21:26;;;;;;;37.55;19.35;;;;;;;12.48;51.90;98921.00;4853370;29;20084;-62
2023/01/15 13:24:22;;;;;;;37.83;19.45;;;;;;;12.59;52.25;98925.75;4860519;29;20076;-61
2023/01/15 13:27:43;;;;;;;40.63;20.73;;;;;;;12.39;52.24;98927.50;4847608;29;20060;-62
2023/01/15 13:30:56;;;;;;;46.28;20.98;;;;;;;12.36;53.73;98927.09;4854638;29;20378;-62
2023/01/15 13:33:59;;;;;;;45.97;21.60;;;;;;;12.18;54.38;98934.75;4854945;29;20435;-63
2023/01/15 13:36:42;;;;;;;55.88;23.73;;;;;;;11.92;55.05;98932.78;4854578;29;20429;-63
2023/01/15 13:39:49;;;;;;;48.65;24.90;;;;;;;11.65;56.13;98929.94;4837752;29;20394;-61
2023/01/15 13:42:36;;;;;;;58.05;25.63;;;;;;;11.74;55.74;98937.78;4853845;29;20546;-62
2023/01/15 13:45:32;;;;;;;52.88;25.08;;;;;;;11.53;56.35;98941.28;4861786;29;20490;-62
2023/01/15 13:48:23;;;;;;;63.25;27.10;;;;;;;11.53;56.78;98941.28;4864570;29;20139;-62
2023/01/15 13:51:42;;;;;;;57.38;27.17;;;;;;;11.41;57.26;98945.47;4873863;29;20087;-62
2023/01/15 13:54:21;;;;;;;56.05;27.88;;;;;;;11.47;57.50;98947.34;4839918;29;20547;-63
2023/01/15 13:57:31;;;;;;;52.17;27.77;;;;;;;11.20;58.68;98943.66;4854258;29;20144;-64
2023/01/15 14:00:32;;;;;;;;;;;;;;;11.23;59.05;98959.19;4864434;29;20112;-63
2023/01/15 14:04:05;;;;;;;71.57;34.08;;;;;;;11.05;59.59;98958.81;4840452;29;19992;-63
2023/01/15 14:06:58;;;;;;;74.20;36.00;;;;;;;11.00;59.50;98969.97;4842231;29;20049;-62